sensor_id;sensor_type;location;lat;lon;timestamp;P1;durP1;ratioP1;P2;durP2;ratioP2
4468;SDS011;2247;42.666;23.292;2024-03-17T00:01:02;25.00;;;16.80;;
4468;SDS011;2247;42.666;23.292;2024-03-17T00:03:28;26.13;;;16.90;;
4468;SDS011;2247;42.666;23.292;2024-03-17T00:05:56;26.20;;;17.13;;
4468;SDS011;2247;42.666;23.292;2024-03-17T00:08:24;26.63;;;16.80;;
4468;SDS011;2247;42.666;23.292;2024-03-17T00:10:51;31.67;;;17.70;;
4468;SDS011;2247;42.666;23.292;2024-03-17T00:13:17;26.40;;;16.83;;
4468;SDS011;2247;42.666;23.292;2024-03-17T00:15:44;30.63;;;17.73;;
4468;SDS011;2247;42.666;23.292;2024-03-17T00:18:10;27.67;;;17.40;;
4468;SDS011;2247;42.666;23.292;2024-03-17T00:20:37;27.33;;;17.40;;
4468;SDS011;2247;42.666;23.292;2024-03-17T00:23:04;30.93;;;19.00;;
4468;SDS011;2247;42.666;23.292;2024-03-17T00:25:34;34.13;;;18.87;;
4468;SDS011;2247;42.666;23.292;2024-03-17T00:28:00;28.50;;;17.60;;
4468;SDS011;2247;42.666;23.292;2024-03-17T00:30:28;29.13;;;18.50;;
4468;SDS011;2247;42.666;23.292;2024-03-17T00:32:54;29.40;;;17.80;;
4468;SDS011;2247;42.666;23.292;2024-03-17T00:35:23;35.10;;;16.60;;
4468;SDS011;2247;42.666;23.292;2024-03-17T00:37:50;24.50;;;16.83;;
4468;SDS011;2247;42.666;23.292;2024-03-17T00:40:17;27.53;;;17.23;;
4468;SDS011;2247;42.666;23.292;2024-03-17T00:42:46;30.67;;;18.97;;
4468;SDS011;2247;42.666;23.292;2024-03-17T00:45:12;33.80;;;18.77;;
4468;SDS011;2247;42.666;23.292;2024-03-17T00:47:39;31.73;;;19.23;;
4468;SDS011;2247;42.666;23.292;2024-03-17T00:50:05;28.13;;;19.80;;
4468;SDS011;2247;42.666;23.292;2024-03-17T00:52:33;28.97;;;18.20;;
4468;SDS011;2247;42.666;23.292;2024-03-17T00:55:00;28.67;;;17.80;;
4468;SDS011;2247;42.666;23.292;2024-03-17T00:57:27;27.17;;;17.00;;
4468;SDS011;2247;42.666;23.292;2024-03-17T00:59:55;27.07;;;17.30;;
4468;SDS011;2247;42.666;23.292;2024-03-17T01:02:21;26.93;;;16.63;;
4468;SDS011;2247;42.666;23.292;2024-03-17T01:04:49;28.87;;;16.00;;
4468;SDS011;2247;42.666;23.292;2024-03-17T01:07:15;30.00;;;16.50;;
4468;SDS011;2247;42.666;23.292;2024-03-17T01:09:42;27.40;;;17.70;;
4468;SDS011;2247;42.666;23.292;2024-03-17T01:12:07;28.47;;;16.73;;
4468;SDS011;2247;42.666;23.292;2024-03-17T01:14:35;28.50;;;17.00;;
4468;SDS011;2247;42.666;23.292;2024-03-17T01:17:02;26.87;;;17.50;;
4468;SDS011;2247;42.666;23.292;2024-03-17T01:19:31;30.80;;;16.60;;
4468;SDS011;2247;42.666;23.292;2024-03-17T01:21:57;31.30;;;17.23;;
4468;SDS011;2247;42.666;23.292;2024-03-17T01:24:27;25.60;;;16.80;;
4468;SDS011;2247;42.666;23.292;2024-03-17T01:26:56;30.40;;;18.00;;
4468;SDS011;2247;42.666;23.292;2024-03-17T01:29:24;29.17;;;17.00;;
4468;SDS011;2247;42.666;23.292;2024-03-17T01:31:50;31.80;;;17.10;;
4468;SDS011;2247;42.666;23.292;2024-03-17T01:34:19;30.13;;;18.60;;
4468;SDS011;2247;42.666;23.292;2024-03-17T01:36:45;26.00;;;16.20;;
4468;SDS011;2247;42.666;23.292;2024-03-17T01:39:12;27.93;;;17.00;;
4468;SDS011;2247;42.666;23.292;2024-03-17T01:41:38;28.70;;;16.80;;
4468;SDS011;2247;42.666;23.292;2024-03-17T01:44:06;27.77;;;16.30;;
4468;SDS011;2247;42.666;23.292;2024-03-17T01:46:32;29.40;;;17.80;;
4468;SDS011;2247;42.666;23.292;2024-03-17T01:48:59;30.40;;;17.33;;
4468;SDS011;2247;42.666;23.292;2024-03-17T01:51:27;27.10;;;17.60;;
4468;SDS011;2247;42.666;23.292;2024-03-17T01:53:54;25.17;;;16.47;;
4468;SDS011;2247;42.666;23.292;2024-03-17T01:56:21;28.47;;;16.70;;
4468;SDS011;2247;42.666;23.292;2024-03-17T01:58:49;27.67;;;17.30;;
4468;SDS011;2247;42.666;23.292;2024-03-17T02:01:15;30.80;;;17.37;;
4468;SDS011;2247;42.666;23.292;2024-03-17T02:03:43;27.33;;;16.13;;
4468;SDS011;2247;42.666;23.292;2024-03-17T02:06:09;28.30;;;16.47;;
4468;SDS011;2247;42.666;23.292;2024-03-17T02:08:49;28.73;;;17.60;;
4468;SDS011;2247;42.666;23.292;2024-03-17T02:14:00;26.73;;;17.20;;
4468;SDS011;2247;42.666;23.292;2024-03-17T02:16:26;26.07;;;16.50;;
4468;SDS011;2247;42.666;23.292;2024-03-17T02:18:54;34.10;;;17.50;;
4468;SDS011;2247;42.666;23.292;2024-03-17T02:21:20;31.77;;;17.03;;
4468;SDS011;2247;42.666;23.292;2024-03-17T02:23:50;27.67;;;17.23;;
4468;SDS011;2247;42.666;23.292;2024-03-17T02:26:16;28.50;;;17.50;;
4468;SDS011;2247;42.666;23.292;2024-03-17T02:28:44;31.33;;;18.17;;
4468;SDS011;2247;42.666;23.292;2024-03-17T02:31:12;28.20;;;17.47;;
4468;SDS011;2247;42.666;23.292;2024-03-17T02:33:41;32.93;;;17.70;;
4468;SDS011;2247;42.666;23.292;2024-03-17T02:36:07;30.73;;;17.30;;
4468;SDS011;2247;42.666;23.292;2024-03-17T02:38:35;26.93;;;16.90;;
4468;SDS011;2247;42.666;23.292;2024-03-17T02:41:22;27.80;;;18.30;;
4468;SDS011;2247;42.666;23.292;2024-03-17T02:43:49;29.97;;;18.20;;
4468;SDS011;2247;42.666;23.292;2024-03-17T02:46:17;30.30;;;18.00;;
4468;SDS011;2247;42.666;23.292;2024-03-17T02:48:45;28.50;;;17.60;;
4468;SDS011;2247;42.666;23.292;2024-03-17T02:51:13;26.97;;;16.83;;
4468;SDS011;2247;42.666;23.292;2024-03-17T02:53:41;30.27;;;17.20;;
4468;SDS011;2247;42.666;23.292;2024-03-17T02:56:08;31.33;;;17.20;;
4468;SDS011;2247;42.666;23.292;2024-03-17T02:58:37;29.57;;;18.20;;
4468;SDS011;2247;42.666;23.292;2024-03-17T03:01:07;26.60;;;16.70;;
4468;SDS011;2247;42.666;23.292;2024-03-17T03:03:35;27.80;;;16.07;;
4468;SDS011;2247;42.666;23.292;2024-03-17T03:06:02;26.53;;;16.20;;
4468;SDS011;2247;42.666;23.292;2024-03-17T03:08:34;31.00;;;17.00;;
4468;SDS011;2247;42.666;23.292;2024-03-17T03:11:02;30.57;;;16.70;;
4468;SDS011;2247;42.666;23.292;2024-03-17T03:13:31;30.80;;;18.33;;
4468;SDS011;2247;42.666;23.292;2024-03-17T03:15:59;27.00;;;17.60;;
4468;SDS011;2247;42.666;23.292;2024-03-17T03:18:26;30.57;;;16.70;;
4468;SDS011;2247;42.666;23.292;2024-03-17T03:20:53;30.13;;;17.20;;
4468;SDS011;2247;42.666;23.292;2024-03-17T03:23:20;29.37;;;17.53;;
4468;SDS011;2247;42.666;23.292;2024-03-17T03:25:47;30.07;;;17.13;;
4468;SDS011;2247;42.666;23.292;2024-03-17T03:28:21;26.03;;;16.13;;
4468;SDS011;2247;42.666;23.292;2024-03-17T03:30:48;29.17;;;16.00;;
4468;SDS011;2247;42.666;23.292;2024-03-17T03:33:17;30.07;;;17.90;;
4468;SDS011;2247;42.666;23.292;2024-03-17T03:35:44;28.07;;;17.67;;
4468;SDS011;2247;42.666;23.292;2024-03-17T03:38:11;27.10;;;16.63;;
4468;SDS011;2247;42.666;23.292;2024-03-17T03:40:40;33.77;;;16.60;;
4468;SDS011;2247;42.666;23.292;2024-03-17T03:43:07;28.20;;;16.63;;
4468;SDS011;2247;42.666;23.292;2024-03-17T03:45:34;27.83;;;16.97;;
4468;SDS011;2247;42.666;23.292;2024-03-17T03:48:01;30.07;;;16.60;;
4468;SDS011;2247;42.666;23.292;2024-03-17T03:50:30;26.97;;;17.07;;
4468;SDS011;2247;42.666;23.292;2024-03-17T03:52:58;32.97;;;17.40;;
4468;SDS011;2247;42.666;23.292;2024-03-17T03:55:25;24.50;;;16.10;;
4468;SDS011;2247;42.666;23.292;2024-03-17T03:57:52;31.77;;;17.30;;
4468;SDS011;2247;42.666;23.292;2024-03-17T04:00:19;26.10;;;16.40;;
4468;SDS011;2247;42.666;23.292;2024-03-17T04:02:48;27.10;;;15.50;;
4468;SDS011;2247;42.666;23.292;2024-03-17T04:05:15;27.53;;;16.60;;
4468;SDS011;2247;42.666;23.292;2024-03-17T04:07:45;27.90;;;16.23;;
4468;SDS011;2247;42.666;23.292;2024-03-17T04:10:13;27.63;;;17.00;;
4468;SDS011;2247;42.666;23.292;2024-03-17T04:12:43;32.00;;;17.37;;
4468;SDS011;2247;42.666;23.292;2024-03-17T04:15:11;29.33;;;17.63;;
4468;SDS011;2247;42.666;23.292;2024-03-17T04:17:39;27.93;;;16.50;;
4468;SDS011;2247;42.666;23.292;2024-03-17T04:20:07;27.23;;;16.77;;
4468;SDS011;2247;42.666;23.292;2024-03-17T04:22:38;27.73;;;16.80;;
4468;SDS011;2247;42.666;23.292;2024-03-17T04:25:07;32.70;;;17.00;;
4468;SDS011;2247;42.666;23.292;2024-03-17T04:27:34;31.13;;;17.00;;
4468;SDS011;2247;42.666;23.292;2024-03-17T04:30:02;27.70;;;16.70;;
4468;SDS011;2247;42.666;23.292;2024-03-17T04:32:31;25.97;;;16.07;;
4468;SDS011;2247;42.666;23.292;2024-03-17T04:34:58;31.67;;;17.07;;
4468;SDS011;2247;42.666;23.292;2024-03-17T04:37:25;26.77;;;17.20;;
4468;SDS011;2247;42.666;23.292;2024-03-17T04:39:53;31.50;;;17.07;;
4468;SDS011;2247;42.666;23.292;2024-03-17T04:42:24;34.00;;;16.60;;
4468;SDS011;2247;42.666;23.292;2024-03-17T04:44:51;32.30;;;17.10;;
4468;SDS011;2247;42.666;23.292;2024-03-17T04:47:18;28.27;;;17.30;;
4468;SDS011;2247;42.666;23.292;2024-03-17T04:49:45;29.27;;;16.87;;
4468;SDS011;2247;42.666;23.292;2024-03-17T04:52:12;26.90;;;17.03;;
4468;SDS011;2247;42.666;23.292;2024-03-17T04:54:38;29.90;;;15.97;;
4468;SDS011;2247;42.666;23.292;2024-03-17T04:57:08;31.37;;;17.33;;
4468;SDS011;2247;42.666;23.292;2024-03-17T04:59:36;25.70;;;15.30;;
4468;SDS011;2247;42.666;23.292;2024-03-17T05:02:03;28.17;;;16.37;;
4468;SDS011;2247;42.666;23.292;2024-03-17T05:04:30;34.03;;;16.30;;
4468;SDS011;2247;42.666;23.292;2024-03-17T05:06:57;26.20;;;16.60;;
4468;SDS011;2247;42.666;23.292;2024-03-17T05:09:24;34.60;;;17.47;;
4468;SDS011;2247;42.666;23.292;2024-03-17T05:11:51;24.13;;;14.60;;
4468;SDS011;2247;42.666;23.292;2024-03-17T05:14:19;29.23;;;17.13;;
4468;SDS011;2247;42.666;23.292;2024-03-17T05:16:49;26.10;;;16.10;;
4468;SDS011;2247;42.666;23.292;2024-03-17T05:19:16;27.93;;;17.07;;
4468;SDS011;2247;42.666;23.292;2024-03-17T05:21:43;26.77;;;15.90;;
4468;SDS011;2247;42.666;23.292;2024-03-17T05:24:11;27.50;;;16.73;;
4468;SDS011;2247;42.666;23.292;2024-03-17T05:26:38;28.23;;;16.43;;
4468;SDS011;2247;42.666;23.292;2024-03-17T05:29:05;28.47;;;15.60;;
4468;SDS011;2247;42.666;23.292;2024-03-17T05:31:32;28.43;;;16.13;;
4468;SDS011;2247;42.666;23.292;2024-03-17T05:34:01;25.97;;;15.30;;
4468;SDS011;2247;42.666;23.292;2024-03-17T05:36:28;25.07;;;15.20;;
4468;SDS011;2247;42.666;23.292;2024-03-17T05:38:57;28.20;;;15.60;;
4468;SDS011;2247;42.666;23.292;2024-03-17T05:41:25;32.77;;;16.20;;
4468;SDS011;2247;42.666;23.292;2024-03-17T05:43:53;27.00;;;15.47;;
4468;SDS011;2247;42.666;23.292;2024-03-17T05:46:23;24.60;;;15.70;;
4468;SDS011;2247;42.666;23.292;2024-03-17T05:48:52;27.27;;;15.90;;
4468;SDS011;2247;42.666;23.292;2024-03-17T05:51:20;24.07;;;15.73;;
4468;SDS011;2247;42.666;23.292;2024-03-17T05:53:47;30.93;;;16.97;;
4468;SDS011;2247;42.666;23.292;2024-03-17T05:56:14;30.80;;;16.70;;
4468;SDS011;2247;42.666;23.292;2024-03-17T05:58:42;27.03;;;17.20;;
4468;SDS011;2247;42.666;23.292;2024-03-17T06:01:09;34.10;;;17.50;;
4468;SDS011;2247;42.666;23.292;2024-03-17T06:03:37;26.60;;;16.90;;
4468;SDS011;2247;42.666;23.292;2024-03-17T06:06:05;28.00;;;16.80;;
4468;SDS011;2247;42.666;23.292;2024-03-17T06:08:36;29.90;;;17.30;;
4468;SDS011;2247;42.666;23.292;2024-03-17T06:11:04;26.40;;;16.70;;
4468;SDS011;2247;42.666;23.292;2024-03-17T06:13:31;27.37;;;16.57;;
4468;SDS011;2247;42.666;23.292;2024-03-17T06:15:58;26.77;;;16.73;;
4468;SDS011;2247;42.666;23.292;2024-03-17T06:18:26;26.27;;;16.63;;
4468;SDS011;2247;42.666;23.292;2024-03-17T06:20:54;29.27;;;16.70;;
4468;SDS011;2247;42.666;23.292;2024-03-17T06:23:23;32.50;;;16.53;;
4468;SDS011;2247;42.666;23.292;2024-03-17T06:25:53;27.30;;;15.13;;
4468;SDS011;2247;42.666;23.292;2024-03-17T06:28:21;25.23;;;14.50;;
4468;SDS011;2247;42.666;23.292;2024-03-17T06:30:55;18.60;;;13.90;;
4468;SDS011;2247;42.666;23.292;2024-03-17T06:33:25;21.00;;;13.03;;
4468;SDS011;2247;42.666;23.292;2024-03-17T06:35:53;18.07;;;11.63;;
4468;SDS011;2247;42.666;23.292;2024-03-17T06:38:20;19.17;;;12.63;;
4468;SDS011;2247;42.666;23.292;2024-03-17T06:40:50;17.87;;;11.77;;
4468;SDS011;2247;42.666;23.292;2024-03-17T06:43:19;18.47;;;11.13;;
4468;SDS011;2247;42.666;23.292;2024-03-17T06:45:55;17.17;;;11.67;;
4468;SDS011;2247;42.666;23.292;2024-03-17T06:48:23;18.27;;;11.53;;
4468;SDS011;2247;42.666;23.292;2024-03-17T06:50:50;18.07;;;12.23;;
4468;SDS011;2247;42.666;23.292;2024-03-17T06:53:19;19.17;;;12.30;;
4468;SDS011;2247;42.666;23.292;2024-03-17T06:55:56;21.20;;;11.97;;
4468;SDS011;2247;42.666;23.292;2024-03-17T06:58:26;22.00;;;12.13;;
4468;SDS011;2247;42.666;23.292;2024-03-17T07:00:55;19.60;;;12.00;;
4468;SDS011;2247;42.666;23.292;2024-03-17T07:03:24;22.37;;;12.80;;
4468;SDS011;2247;42.666;23.292;2024-03-17T07:05:52;20.00;;;13.30;;
4468;SDS011;2247;42.666;23.292;2024-03-17T07:08:20;19.73;;;11.87;;
4468;SDS011;2247;42.666;23.292;2024-03-17T07:10:58;18.70;;;12.60;;
4468;SDS011;2247;42.666;23.292;2024-03-17T07:13:36;17.10;;;12.23;;
4468;SDS011;2247;42.666;23.292;2024-03-17T07:16:06;20.87;;;13.17;;
4468;SDS011;2247;42.666;23.292;2024-03-17T07:18:34;18.97;;;12.47;;
4468;SDS011;2247;42.666;23.292;2024-03-17T07:21:02;17.93;;;11.40;;
4468;SDS011;2247;42.666;23.292;2024-03-17T07:23:30;17.93;;;11.90;;
4468;SDS011;2247;42.666;23.292;2024-03-17T07:25:58;20.60;;;12.80;;
4468;SDS011;2247;42.666;23.292;2024-03-17T07:28:27;19.43;;;12.90;;
4468;SDS011;2247;42.666;23.292;2024-03-17T07:30:55;22.23;;;13.50;;
4468;SDS011;2247;42.666;23.292;2024-03-17T07:33:24;20.03;;;13.60;;
4468;SDS011;2247;42.666;23.292;2024-03-17T07:35:51;23.13;;;15.23;;
4468;SDS011;2247;42.666;23.292;2024-03-17T07:38:20;20.43;;;14.30;;
4468;SDS011;2247;42.666;23.292;2024-03-17T07:40:55;22.83;;;13.60;;
4468;SDS011;2247;42.666;23.292;2024-03-17T07:43:24;24.67;;;14.17;;
4468;SDS011;2247;42.666;23.292;2024-03-17T07:46:00;26.63;;;15.73;;
4468;SDS011;2247;42.666;23.292;2024-03-17T07:48:28;29.80;;;16.67;;
4468;SDS011;2247;42.666;23.292;2024-03-17T07:50:55;29.57;;;17.80;;
4468;SDS011;2247;42.666;23.292;2024-03-17T07:53:23;27.73;;;18.50;;
4468;SDS011;2247;42.666;23.292;2024-03-17T07:55:58;28.13;;;17.67;;
4468;SDS011;2247;42.666;23.292;2024-03-17T07:58:26;28.83;;;16.97;;
4468;SDS011;2247;42.666;23.292;2024-03-17T08:00:56;30.40;;;17.73;;
4468;SDS011;2247;42.666;23.292;2024-03-17T08:03:26;28.83;;;17.00;;
4468;SDS011;2247;42.666;23.292;2024-03-17T08:05:53;31.50;;;16.93;;
4468;SDS011;2247;42.666;23.292;2024-03-17T08:08:21;24.33;;;15.93;;
4468;SDS011;2247;42.666;23.292;2024-03-17T08:10:48;29.80;;;15.10;;
4468;SDS011;2247;42.666;23.292;2024-03-17T08:13:16;22.57;;;15.20;;
4468;SDS011;2247;42.666;23.292;2024-03-17T08:15:43;23.30;;;15.10;;
4468;SDS011;2247;42.666;23.292;2024-03-17T08:18:11;25.13;;;14.77;;
4468;SDS011;2247;42.666;23.292;2024-03-17T08:20:40;24.90;;;15.07;;
4468;SDS011;2247;42.666;23.292;2024-03-17T08:23:09;20.27;;;13.60;;
4468;SDS011;2247;42.666;23.292;2024-03-17T08:25:37;27.47;;;14.77;;
4468;SDS011;2247;42.666;23.292;2024-03-17T08:28:04;26.53;;;15.37;;
4468;SDS011;2247;42.666;23.292;2024-03-17T08:30:32;21.43;;;14.10;;
4468;SDS011;2247;42.666;23.292;2024-03-17T08:33:00;26.90;;;15.30;;
4468;SDS011;2247;42.666;23.292;2024-03-17T08:35:27;25.20;;;15.07;;
4468;SDS011;2247;42.666;23.292;2024-03-17T08:37:55;23.23;;;15.47;;
4468;SDS011;2247;42.666;23.292;2024-03-17T08:40:23;23.70;;;14.70;;
4468;SDS011;2247;42.666;23.292;2024-03-17T08:42:50;25.50;;;16.00;;
4468;SDS011;2247;42.666;23.292;2024-03-17T08:45:17;26.60;;;15.70;;
4468;SDS011;2247;42.666;23.292;2024-03-17T08:47:50;27.03;;;16.13;;
4468;SDS011;2247;42.666;23.292;2024-03-17T08:50:17;26.00;;;17.23;;
4468;SDS011;2247;42.666;23.292;2024-03-17T08:52:45;29.87;;;18.40;;
4468;SDS011;2247;42.666;23.292;2024-03-17T08:55:14;31.30;;;17.73;;
4468;SDS011;2247;42.666;23.292;2024-03-17T08:57:41;32.00;;;18.60;;
4468;SDS011;2247;42.666;23.292;2024-03-17T09:00:08;40.33;;;17.73;;
4468;SDS011;2247;42.666;23.292;2024-03-17T09:02:36;35.13;;;19.37;;
4468;SDS011;2247;42.666;23.292;2024-03-17T09:05:03;29.97;;;17.87;;
4468;SDS011;2247;42.666;23.292;2024-03-17T09:07:31;29.97;;;18.20;;
4468;SDS011;2247;42.666;23.292;2024-03-17T09:09:58;33.00;;;18.37;;
4468;SDS011;2247;42.666;23.292;2024-03-17T09:12:26;24.73;;;16.23;;
4468;SDS011;2247;42.666;23.292;2024-03-17T09:14:54;27.90;;;15.90;;
4468;SDS011;2247;42.666;23.292;2024-03-17T09:17:21;24.60;;;14.20;;
4468;SDS011;2247;42.666;23.292;2024-03-17T09:19:48;22.63;;;12.47;;
4468;SDS011;2247;42.666;23.292;2024-03-17T09:22:15;26.43;;;13.70;;
4468;SDS011;2247;42.666;23.292;2024-03-17T09:24:42;17.37;;;12.40;;
4468;SDS011;2247;42.666;23.292;2024-03-17T09:27:10;23.93;;;12.47;;
4468;SDS011;2247;42.666;23.292;2024-03-17T09:29:38;18.27;;;12.63;;
4468;SDS011;2247;42.666;23.292;2024-03-17T09:32:06;17.00;;;10.50;;
4468;SDS011;2247;42.666;23.292;2024-03-17T09:34:36;13.90;;;10.07;;
4468;SDS011;2247;42.666;23.292;2024-03-17T09:37:05;16.90;;;10.60;;
4468;SDS011;2247;42.666;23.292;2024-03-17T09:39:32;14.60;;;9.77;;
4468;SDS011;2247;42.666;23.292;2024-03-17T09:41:59;17.90;;;10.50;;
4468;SDS011;2247;42.666;23.292;2024-03-17T09:44:28;14.37;;;9.50;;
4468;SDS011;2247;42.666;23.292;2024-03-17T09:46:58;12.33;;;9.00;;
4468;SDS011;2247;42.666;23.292;2024-03-17T09:49:27;12.40;;;8.63;;
4468;SDS011;2247;42.666;23.292;2024-03-17T09:51:54;11.33;;;8.10;;
4468;SDS011;2247;42.666;23.292;2024-03-17T09:54:25;12.10;;;8.40;;
4468;SDS011;2247;42.666;23.292;2024-03-17T09:56:52;11.10;;;7.70;;
4468;SDS011;2247;42.666;23.292;2024-03-17T09:59:19;9.67;;;7.07;;
4468;SDS011;2247;42.666;23.292;2024-03-17T10:01:46;13.50;;;6.40;;
4468;SDS011;2247;42.666;23.292;2024-03-17T10:04:19;15.53;;;6.93;;
4468;SDS011;2247;42.666;23.292;2024-03-17T10:06:58;18.83;;;6.20;;
4468;SDS011;2247;42.666;23.292;2024-03-17T10:09:25;8.23;;;5.20;;
4468;SDS011;2247;42.666;23.292;2024-03-17T10:11:57;5.13;;;4.40;;
4468;SDS011;2247;42.666;23.292;2024-03-17T10:14:24;4.83;;;4.10;;
4468;SDS011;2247;42.666;23.292;2024-03-17T10:16:52;6.70;;;4.60;;
4468;SDS011;2247;42.666;23.292;2024-03-17T10:19:23;6.30;;;4.93;;
4468;SDS011;2247;42.666;23.292;2024-03-17T10:21:57;7.23;;;5.60;;
4468;SDS011;2247;42.666;23.292;2024-03-17T10:24:27;8.70;;;5.20;;
4468;SDS011;2247;42.666;23.292;2024-03-17T10:26:56;7.10;;;5.20;;
4468;SDS011;2247;42.666;23.292;2024-03-17T10:29:25;10.17;;;6.50;;
4468;SDS011;2247;42.666;23.292;2024-03-17T10:31:55;7.63;;;5.77;;
4468;SDS011;2247;42.666;23.292;2024-03-17T10:34:24;9.60;;;5.50;;
4468;SDS011;2247;42.666;23.292;2024-03-17T10:37:05;10.33;;;5.30;;
4468;SDS011;2247;42.666;23.292;2024-03-17T10:39:34;8.93;;;5.27;;
4468;SDS011;2247;42.666;23.292;2024-03-17T10:42:02;11.03;;;5.33;;
4468;SDS011;2247;42.666;23.292;2024-03-17T10:44:31;11.03;;;4.80;;
4468;SDS011;2247;42.666;23.292;2024-03-17T10:46:59;5.90;;;4.50;;
4468;SDS011;2247;42.666;23.292;2024-03-17T10:49:29;6.23;;;4.33;;
4468;SDS011;2247;42.666;23.292;2024-03-17T10:51:58;6.73;;;4.03;;
4468;SDS011;2247;42.666;23.292;2024-03-17T10:54:26;6.33;;;4.40;;
4468;SDS011;2247;42.666;23.292;2024-03-17T10:56:54;7.30;;;4.40;;
4468;SDS011;2247;42.666;23.292;2024-03-17T10:59:25;7.53;;;5.23;;
4468;SDS011;2247;42.666;23.292;2024-03-17T11:02:02;8.03;;;5.00;;
4468;SDS011;2247;42.666;23.292;2024-03-17T11:04:31;6.67;;;5.30;;
4468;SDS011;2247;42.666;23.292;2024-03-17T11:07:00;8.60;;;5.27;;
4468;SDS011;2247;42.666;23.292;2024-03-17T11:09:28;10.30;;;5.97;;
4468;SDS011;2247;42.666;23.292;2024-03-17T11:11:55;11.87;;;6.60;;
4468;SDS011;2247;42.666;23.292;2024-03-17T11:14:25;8.70;;;6.20;;
4468;SDS011;2247;42.666;23.292;2024-03-17T11:16:52;11.13;;;5.93;;
4468;SDS011;2247;42.666;23.292;2024-03-17T11:19:19;13.67;;;6.00;;
4468;SDS011;2247;42.666;23.292;2024-03-17T11:21:48;8.97;;;6.73;;
4468;SDS011;2247;42.666;23.292;2024-03-17T11:24:18;10.67;;;6.00;;
4468;SDS011;2247;42.666;23.292;2024-03-17T11:26:45;7.60;;;4.93;;
4468;SDS011;2247;42.666;23.292;2024-03-17T11:29:25;6.53;;;4.97;;
4468;SDS011;2247;42.666;23.292;2024-03-17T11:31:54;5.93;;;4.80;;
4468;SDS011;2247;42.666;23.292;2024-03-17T11:34:37;7.00;;;4.97;;
4468;SDS011;2247;42.666;23.292;2024-03-17T11:37:07;6.43;;;4.37;;
4468;SDS011;2247;42.666;23.292;2024-03-17T11:39:53;5.80;;;4.83;;
4468;SDS011;2247;42.666;23.292;2024-03-17T11:42:24;5.90;;;4.47;;
4468;SDS011;2247;42.666;23.292;2024-03-17T11:44:59;4.97;;;4.17;;
4468;SDS011;2247;42.666;23.292;2024-03-17T11:47:34;5.50;;;4.50;;
4468;SDS011;2247;42.666;23.292;2024-03-17T11:50:02;8.30;;;4.87;;
4468;SDS011;2247;42.666;23.292;2024-03-17T11:52:32;5.33;;;4.63;;
4468;SDS011;2247;42.666;23.292;2024-03-17T11:54:58;7.77;;;4.50;;
4468;SDS011;2247;42.666;23.292;2024-03-17T11:57:25;6.47;;;3.80;;
4468;SDS011;2247;42.666;23.292;2024-03-17T11:59:52;6.50;;;4.33;;
4468;SDS011;2247;42.666;23.292;2024-03-17T12:02:23;6.47;;;4.73;;
4468;SDS011;2247;42.666;23.292;2024-03-17T12:04:51;6.00;;;4.70;;
4468;SDS011;2247;42.666;23.292;2024-03-17T12:07:20;5.07;;;4.20;;
4468;SDS011;2247;42.666;23.292;2024-03-17T12:09:50;5.50;;;4.50;;
4468;SDS011;2247;42.666;23.292;2024-03-17T12:12:19;5.53;;;4.37;;
4468;SDS011;2247;42.666;23.292;2024-03-17T12:14:48;6.80;;;5.47;;
4468;SDS011;2247;42.666;23.292;2024-03-17T12:17:15;5.60;;;4.37;;
4468;SDS011;2247;42.666;23.292;2024-03-17T12:19:47;6.30;;;4.87;;
4468;SDS011;2247;42.666;23.292;2024-03-17T12:22:15;5.50;;;4.27;;
4468;SDS011;2247;42.666;23.292;2024-03-17T12:24:47;5.40;;;4.30;;
4468;SDS011;2247;42.666;23.292;2024-03-17T12:27:17;7.50;;;4.73;;
4468;SDS011;2247;42.666;23.292;2024-03-17T12:29:46;6.80;;;4.50;;
4468;SDS011;2247;42.666;23.292;2024-03-17T12:32:14;6.87;;;4.80;;
4468;SDS011;2247;42.666;23.292;2024-03-17T12:34:42;7.00;;;4.80;;
4468;SDS011;2247;42.666;23.292;2024-03-17T12:37:13;6.00;;;5.07;;
4468;SDS011;2247;42.666;23.292;2024-03-17T12:39:44;10.10;;;5.30;;
4468;SDS011;2247;42.666;23.292;2024-03-17T12:42:12;6.23;;;5.00;;
4468;SDS011;2247;42.666;23.292;2024-03-17T12:44:46;10.10;;;5.90;;
4468;SDS011;2247;42.666;23.292;2024-03-17T12:47:15;6.50;;;5.20;;
4468;SDS011;2247;42.666;23.292;2024-03-17T12:49:46;8.03;;;5.63;;
4468;SDS011;2247;42.666;23.292;2024-03-17T12:52:17;8.90;;;6.03;;
4468;SDS011;2247;42.666;23.292;2024-03-17T12:54:45;6.27;;;5.30;;
4468;SDS011;2247;42.666;23.292;2024-03-17T12:57:42;6.13;;;5.50;;
4468;SDS011;2247;42.666;23.292;2024-03-17T13:00:28;8.50;;;5.83;;
4468;SDS011;2247;42.666;23.292;2024-03-17T13:02:59;6.97;;;5.37;;
4468;SDS011;2247;42.666;23.292;2024-03-17T13:05:29;6.27;;;5.60;;
4468;SDS011;2247;42.666;23.292;2024-03-17T13:07:57;9.00;;;5.70;;
4468;SDS011;2247;42.666;23.292;2024-03-17T13:10:25;15.03;;;6.10;;
4468;SDS011;2247;42.666;23.292;2024-03-17T13:12:59;10.87;;;5.73;;
4468;SDS011;2247;42.666;23.292;2024-03-17T13:15:29;7.57;;;5.83;;
4468;SDS011;2247;42.666;23.292;2024-03-17T13:17:57;7.93;;;6.30;;
4468;SDS011;2247;42.666;23.292;2024-03-17T13:20:25;7.20;;;6.07;;
4468;SDS011;2247;42.666;23.292;2024-03-17T13:22:53;10.77;;;6.87;;
4468;SDS011;2247;42.666;23.292;2024-03-17T13:25:25;14.63;;;6.87;;
4468;SDS011;2247;42.666;23.292;2024-03-17T13:27:55;8.70;;;6.43;;
4468;SDS011;2247;42.666;23.292;2024-03-17T13:30:23;9.53;;;6.33;;
4468;SDS011;2247;42.666;23.292;2024-03-17T13:32:54;8.83;;;6.93;;
4468;SDS011;2247;42.666;23.292;2024-03-17T13:35:24;10.90;;;7.23;;
4468;SDS011;2247;42.666;23.292;2024-03-17T13:37:52;8.37;;;6.73;;
4468;SDS011;2247;42.666;23.292;2024-03-17T13:40:20;12.60;;;7.20;;
4468;SDS011;2247;42.666;23.292;2024-03-17T13:42:48;11.17;;;7.50;;
4468;SDS011;2247;42.666;23.292;2024-03-17T13:45:16;13.63;;;7.80;;
4468;SDS011;2247;42.666;23.292;2024-03-17T13:47:46;9.10;;;6.93;;
4468;SDS011;2247;42.666;23.292;2024-03-17T13:50:17;8.60;;;6.80;;
4468;SDS011;2247;42.666;23.292;2024-03-17T13:52:45;10.50;;;6.83;;
4468;SDS011;2247;42.666;23.292;2024-03-17T13:55:13;12.97;;;7.60;;
4468;SDS011;2247;42.666;23.292;2024-03-17T13:57:43;11.93;;;8.10;;
4468;SDS011;2247;42.666;23.292;2024-03-17T14:00:13;15.23;;;8.07;;
4468;SDS011;2247;42.666;23.292;2024-03-17T14:02:41;11.87;;;7.80;;
4468;SDS011;2247;42.666;23.292;2024-03-17T14:05:11;12.80;;;8.00;;
4468;SDS011;2247;42.666;23.292;2024-03-17T14:07:44;13.60;;;8.30;;
4468;SDS011;2247;42.666;23.292;2024-03-17T14:10:12;14.07;;;8.60;;
4468;SDS011;2247;42.666;23.292;2024-03-17T14:12:41;10.10;;;7.80;;
4468;SDS011;2247;42.666;23.292;2024-03-17T14:15:09;10.70;;;8.40;;
4468;SDS011;2247;42.666;23.292;2024-03-17T14:17:38;10.80;;;7.90;;
4468;SDS011;2247;42.666;23.292;2024-03-17T14:20:05;25.50;;;7.80;;
4468;SDS011;2247;42.666;23.292;2024-03-17T14:22:34;11.50;;;7.20;;
4468;SDS011;2247;42.666;23.292;2024-03-17T14:25:04;10.70;;;8.07;;
4468;SDS011;2247;42.666;23.292;2024-03-17T14:27:32;8.93;;;7.13;;
4468;SDS011;2247;42.666;23.292;2024-03-17T14:30:00;20.93;;;8.10;;
4468;SDS011;2247;42.666;23.292;2024-03-17T14:32:29;11.00;;;7.57;;
4468;SDS011;2247;42.666;23.292;2024-03-17T14:34:56;15.10;;;7.57;;
4468;SDS011;2247;42.666;23.292;2024-03-17T14:37:23;12.70;;;7.97;;
4468;SDS011;2247;42.666;23.292;2024-03-17T14:39:51;12.37;;;7.30;;
4468;SDS011;2247;42.666;23.292;2024-03-17T14:42:19;10.60;;;7.67;;
4468;SDS011;2247;42.666;23.292;2024-03-17T14:44:46;16.80;;;8.07;;
4468;SDS011;2247;42.666;23.292;2024-03-17T14:47:14;9.90;;;7.53;;
4468;SDS011;2247;42.666;23.292;2024-03-17T14:49:41;10.83;;;7.50;;
4468;SDS011;2247;42.666;23.292;2024-03-17T14:52:11;12.97;;;7.27;;